sensor_id;sensor_type;location;lat;lon;timestamp;pressure;altitude;pressure_sealevel;temperature;humidity
72975;BME280;61166;54.228;37.632;2022-07-09T00:00:58;99349.00;;;16.09;83.69
72975;BME280;61166;54.228;37.632;2022-07-09T00:03:24;99351.50;;;15.99;83.96
72975;BME280;61166;54.228;37.632;2022-07-09T00:05:49;99361.94;;;15.89;84.11
72975;BME280;61166;54.228;37.632;2022-07-09T00:08:15;99356.72;;;15.94;84.27
72975;BME280;61166;54.228;37.632;2022-07-09T00:10:40;99348.34;;;16.02;83.50
72975;BME280;61166;54.228;37.632;2022-07-09T00:13:05;99347.22;;;15.98;83.86
72975;BME280;61166;54.228;37.632;2022-07-09T00:15:31;99348.03;;;15.99;83.34
72975;BME280;61166;54.228;37.632;2022-07-09T00:17:56;99347.47;;;15.97;83.83
72975;BME280;61166;54.228;37.632;2022-07-09T00:20:22;99354.63;;;15.96;83.77
72975;BME280;61166;54.228;37.632;2022-07-09T00:22:47;99363.16;;;15.98;83.58
72975;BME280;61166;54.228;37.632;2022-07-09T00:25:13;99360.88;;;16.07;82.96
72975;BME280;61166;54.228;37.632;2022-07-09T00:27:38;99357.75;;;16.10;82.83
72975;BME280;61166;54.228;37.632;2022-07-09T00:30:04;99356.28;;;16.19;82.43
72975;BME280;61166;54.228;37.632;2022-07-09T00:32:29;99353.09;;;16.17;82.51
72975;BME280;61166;54.228;37.632;2022-07-09T00:34:55;99354.41;;;16.19;82.05
72975;BME280;61166;54.228;37.632;2022-07-09T00:37:20;99350.44;;;16.17;82.22
72975;BME280;61166;54.228;37.632;2022-07-09T00:39:45;99340.59;;;16.17;81.96
72975;BME280;61166;54.228;37.632;2022-07-09T00:42:11;99343.69;;;16.09;82.72
72975;BME280;61166;54.228;37.632;2022-07-09T00:44:37;99341.84;;;16.10;82.34
72975;BME280;61166;54.228;37.632;2022-07-09T00:47:04;99344.34;;;16.00;82.74
72975;BME280;61166;54.228;37.632;2022-07-09T00:49:31;99337.09;;;15.95;83.09
72975;BME280;61166;54.228;37.632;2022-07-09T00:51:57;99338.72;;;15.96;83.17
72975;BME280;61166;54.228;37.632;2022-07-09T00:54:23;99347.78;;;16.00;82.95
72975;BME280;61166;54.228;37.632;2022-07-09T00:56:49;99352.69;;;15.92;82.91
72975;BME280;61166;54.228;37.632;2022-07-09T00:59:16;99352.13;;;15.90;83.24
72975;BME280;61166;54.228;37.632;2022-07-09T01:01:42;99349.47;;;15.90;83.32
72975;BME280;61166;54.228;37.632;2022-07-09T01:04:07;99342.41;;;15.95;83.15
72975;BME280;61166;54.228;37.632;2022-07-09T01:06:33;99347.56;;;16.02;82.92
72975;BME280;61166;54.228;37.632;2022-07-09T01:09:02;99347.16;;;16.10;82.54
72975;BME280;61166;54.228;37.632;2022-07-09T01:11:28;99345.13;;;16.17;82.10
72975;BME280;61166;54.228;37.632;2022-07-09T01:13:54;99344.38;;;16.22;81.66
72975;BME280;61166;54.228;37.632;2022-07-09T01:16:20;99342.34;;;16.29;80.90
72975;BME280;61166;54.228;37.632;2022-07-09T01:18:46;99340.56;;;16.34;80.40
72975;BME280;61166;54.228;37.632;2022-07-09T01:21:13;99346.38;;;16.31;80.33
72975;BME280;61166;54.228;37.632;2022-07-09T01:23:39;99341.41;;;16.18;81.07
72975;BME280;61166;54.228;37.632;2022-07-09T01:26:04;99344.50;;;16.10;81.37
72975;BME280;61166;54.228;37.632;2022-07-09T01:28:30;99347.38;;;16.08;81.42
72975;BME280;61166;54.228;37.632;2022-07-09T01:30:55;99345.13;;;16.17;81.14
72975;BME280;61166;54.228;37.632;2022-07-09T01:33:21;99342.34;;;16.29;80.49
72975;BME280;61166;54.228;37.632;2022-07-09T01:35:46;99343.31;;;16.23;80.73
72975;BME280;61166;54.228;37.632;2022-07-09T01:38:11;99345.97;;;16.23;80.79
72975;BME280;61166;54.228;37.632;2022-07-09T01:40:37;99343.63;;;16.26;80.60
72975;BME280;61166;54.228;37.632;2022-07-09T01:43:02;99337.09;;;16.34;80.18
72975;BME280;61166;54.228;37.632;2022-07-09T01:45:28;99341.03;;;16.48;79.84
72975;BME280;61166;54.228;37.632;2022-07-09T01:47:53;99340.81;;;16.71;79.02
72975;BME280;61166;54.228;37.632;2022-07-09T01:50:19;99338.81;;;16.83;78.54
72975;BME280;61166;54.228;37.632;2022-07-09T01:52:44;99340.41;;;16.84;77.86
72975;BME280;61166;54.228;37.632;2022-07-09T01:55:09;99335.16;;;16.90;77.49
72975;BME280;61166;54.228;37.632;2022-07-09T01:57:35;99332.50;;;16.90;77.54
72975;BME280;61166;54.228;37.632;2022-07-09T02:00:01;99333.13;;;16.97;76.81
72975;BME280;61166;54.228;37.632;2022-07-09T02:02:29;99336.31;;;17.21;76.25
72975;BME280;61166;54.228;37.632;2022-07-09T02:04:54;99332.28;;;17.72;74.19
72975;BME280;61166;54.228;37.632;2022-07-09T02:07:20;99335.47;;;18.11;72.78
72975;BME280;61166;54.228;37.632;2022-07-09T02:09:45;99329.56;;;18.46;71.08
72975;BME280;61166;54.228;37.632;2022-07-09T02:12:10;99330.19;;;18.16;72.02
72975;BME280;61166;54.228;37.632;2022-07-09T02:14:36;99334.34;;;18.02;72.96
72975;BME280;61166;54.228;37.632;2022-07-09T02:17:02;99337.81;;;18.02;72.89
72975;BME280;61166;54.228;37.632;2022-07-09T02:19:27;99342.66;;;18.10;72.78
72975;BME280;61166;54.228;37.632;2022-07-09T02:21:53;99340.06;;;18.21;72.34
72975;BME280;61166;54.228;37.632;2022-07-09T02:24:18;99339.13;;;18.42;72.14
72975;BME280;61166;54.228;37.632;2022-07-09T02:26:43;99338.22;;;18.78;70.92
72975;BME280;61166;54.228;37.632;2022-07-09T02:29:09;99344.75;;;19.23;69.47
72975;BME280;61166;54.228;37.632;2022-07-09T02:31:34;99350.41;;;20.03;66.68
72975;BME280;61166;54.228;37.632;2022-07-09T02:34:00;99351.19;;;20.14;65.91
72975;BME280;61166;54.228;37.632;2022-07-09T02:36:25;99350.41;;;19.98;66.09
72975;BME280;61166;54.228;37.632;2022-07-09T02:38:50;99346.41;;;19.80;66.39
72975;BME280;61166;54.228;37.632;2022-07-09T02:41:16;99334.94;;;19.69;66.38
72975;BME280;61166;54.228;37.632;2022-07-09T02:43:41;99335.47;;;19.51;66.81
72975;BME280;61166;54.228;37.632;2022-07-09T02:46:10;99339.69;;;19.37;67.32
72975;BME280;61166;54.228;37.632;2022-07-09T02:48:35;99342.88;;;19.29;67.46
72975;BME280;61166;54.228;37.632;2022-07-09T02:51:01;99341.53;;;19.21;67.50
72975;BME280;61166;54.228;37.632;2022-07-09T02:53:26;99341.84;;;19.35;67.24
72975;BME280;61166;54.228;37.632;2022-07-09T02:55:52;99342.91;;;19.49;67.10
72975;BME280;61166;54.228;37.632;2022-07-09T02:58:17;99346.94;;;19.52;66.99
72975;BME280;61166;54.228;37.632;2022-07-09T03:00:43;99342.94;;;19.69;66.64
72975;BME280;61166;54.228;37.632;2022-07-09T03:03:09;99335.19;;;19.93;66.03
72975;BME280;61166;54.228;37.632;2022-07-09T03:05:34;99333.03;;;20.10;65.51
72975;BME280;61166;54.228;37.632;2022-07-09T03:08:00;99326.31;;;20.28;65.13
72975;BME280;61166;54.228;37.632;2022-07-09T03:10:27;99330.06;;;20.22;65.51
72975;BME280;61166;54.228;37.632;2022-07-09T03:12:52;99313.00;;;20.88;63.36
72975;BME280;61166;54.228;37.632;2022-07-09T03:15:17;99306.38;;;22.21;59.33
72975;BME280;61166;54.228;37.632;2022-07-09T03:17:43;99305.59;;;23.06;56.40
72975;BME280;61166;54.228;37.632;2022-07-09T03:20:09;99302.94;;;22.39;58.27
72975;BME280;61166;54.228;37.632;2022-07-09T03:22:36;99287.53;;;22.02;59.37
72975;BME280;61166;54.228;37.632;2022-07-09T03:25:03;99280.78;;;23.14;56.55
72975;BME280;61166;54.228;37.632;2022-07-09T03:27:28;99278.78;;;23.71;54.30
72975;BME280;61166;54.228;37.632;2022-07-09T03:29:54;99279.34;;;24.00;53.12
72975;BME280;61166;54.228;37.632;2022-07-09T03:32:20;99274.91;;;24.37;52.61
72975;BME280;61166;54.228;37.632;2022-07-09T03:34:46;99270.09;;;24.61;51.80
72975;BME280;61166;54.228;37.632;2022-07-09T03:37:11;99274.00;;;24.91;51.34
72975;BME280;61166;54.228;37.632;2022-07-09T03:39:36;99266.91;;;25.31;49.69
72975;BME280;61166;54.228;37.632;2022-07-09T03:42:02;99271.41;;;25.45;49.42
72975;BME280;61166;54.228;37.632;2022-07-09T03:44:28;99253.72;;;25.75;48.76
72975;BME280;61166;54.228;37.632;2022-07-09T03:46:53;99258.44;;;25.02;50.01
72975;BME280;61166;54.228;37.632;2022-07-09T03:49:19;99259.97;;;24.17;52.68
72975;BME280;61166;54.228;37.632;2022-07-09T03:51:44;99247.25;;;23.30;55.55
72975;BME280;61166;54.228;37.632;2022-07-09T03:54:10;99246.09;;;22.61;57.59
72975;BME280;61166;54.228;37.632;2022-07-09T03:56:35;99250.69;;;22.18;59.02
72975;BME280;61166;54.228;37.632;2022-07-09T03:59:01;99251.75;;;21.93;60.16
72975;BME280;61166;54.228;37.632;2022-07-09T04:01:26;99254.44;;;21.64;61.24
72975;BME280;61166;54.228;37.632;2022-07-09T04:03:52;99260.34;;;21.32;62.10
72975;BME280;61166;54.228;37.632;2022-07-09T04:06:17;99256.38;;;21.25;62.93
72975;BME280;61166;54.228;37.632;2022-07-09T04:08:43;99256.19;;;21.11;62.93
72975;BME280;61166;54.228;37.632;2022-07-09T04:11:09;99253.38;;;20.92;63.93
72975;BME280;61166;54.228;37.632;2022-07-09T04:13:34;99263.03;;;20.83;64.29
72975;BME280;61166;54.228;37.632;2022-07-09T04:15:59;99265.28;;;20.66;64.57
72975;BME280;61166;54.228;37.632;2022-07-09T04:18:25;99274.91;;;20.67;64.74
72975;BME280;61166;54.228;37.632;2022-07-09T04:20:50;99284.22;;;20.74;64.50
72975;BME280;61166;54.228;37.632;2022-07-09T04:23:16;99279.94;;;20.79;64.27
72975;BME280;61166;54.228;37.632;2022-07-09T04:25:41;99285.31;;;20.68;64.66
72975;BME280;61166;54.228;37.632;2022-07-09T04:28:06;99276.25;;;20.64;65.05
72975;BME280;61166;54.228;37.632;2022-07-09T04:30:32;99283.44;;;20.74;64.75
72975;BME280;61166;54.228;37.632;2022-07-09T04:32:58;99283.69;;;20.77;64.53
72975;BME280;61166;54.228;37.632;2022-07-09T04:35:23;99283.06;;;20.86;64.49
72975;BME280;61166;54.228;37.632;2022-07-09T04:37:48;99287.56;;;20.95;64.43
72975;BME280;61166;54.228;37.632;2022-07-09T04:40:14;99278.25;;;20.88;64.81
72975;BME280;61166;54.228;37.632;2022-07-09T04:42:40;99277.19;;;20.84;65.01
72975;BME280;61166;54.228;37.632;2022-07-09T04:45:05;99276.66;;;20.87;65.03
72975;BME280;61166;54.228;37.632;2022-07-09T04:47:31;99281.53;;;20.80;65.24
72975;BME280;61166;54.228;37.632;2022-07-09T04:49:56;99275.69;;;20.72;64.54
72975;BME280;61166;54.228;37.632;2022-07-09T04:52:22;99268.50;;;20.63;65.07
72975;BME280;61166;54.228;37.632;2022-07-09T04:54:52;99266.31;;;20.05;71.01
72975;BME280;61166;54.228;37.632;2022-07-09T04:57:17;99270.09;;;19.43;72.37
72975;BME280;61166;54.228;37.632;2022-07-09T04:59:44;99261.38;;;18.55;80.26
72975;BME280;61166;54.228;37.632;2022-07-09T05:02:09;99258.69;;;17.93;83.08
72975;BME280;61166;54.228;37.632;2022-07-09T05:04:35;99269.56;;;17.81;82.18
72975;BME280;61166;54.228;37.632;2022-07-09T05:07:01;99275.91;;;17.75;81.69
72975;BME280;61166;54.228;37.632;2022-07-09T05:09:26;99269.44;;;17.66;82.14
72975;BME280;61166;54.228;37.632;2022-07-09T05:11:52;99262.81;;;17.68;83.07
72975;BME280;61166;54.228;37.632;2022-07-09T05:14:17;99262.84;;;17.73;81.64
72975;BME280;61166;54.228;37.632;2022-07-09T05:16:43;99254.06;;;17.73;80.75
72975;BME280;61166;54.228;37.632;2022-07-09T05:19:12;99245.25;;;17.67;82.36
72975;BME280;61166;54.228;37.632;2022-07-09T05:21:39;99254.06;;;17.73;83.09
72975;BME280;61166;54.228;37.632;2022-07-09T05:24:05;99250.25;;;17.64;83.49
72975;BME280;61166;54.228;37.632;2022-07-09T05:26:32;99265.13;;;17.60;84.74
72975;BME280;61166;54.228;37.632;2022-07-09T05:28:58;99261.31;;;17.50;85.22
72975;BME280;61166;54.228;37.632;2022-07-09T05:31:23;99258.88;;;17.44;85.40
72975;BME280;61166;54.228;37.632;2022-07-09T05:33:48;99257.78;;;17.08;88.58
72975;BME280;61166;54.228;37.632;2022-07-09T05:36:14;99260.19;;;16.82;90.73
72975;BME280;61166;54.228;37.632;2022-07-09T05:38:39;99265.69;;;16.76;91.76
72975;BME280;61166;54.228;37.632;2022-07-09T05:41:05;99278.13;;;16.70;92.60
72975;BME280;61166;54.228;37.632;2022-07-09T05:43:32;99277.59;;;16.68;92.83
72975;BME280;61166;54.228;37.632;2022-07-09T05:45:57;99298.19;;;16.61;94.32
72975;BME280;61166;54.228;37.632;2022-07-09T05:48:24;99299.78;;;16.62;95.81
72975;BME280;61166;54.228;37.632;2022-07-09T05:50:49;99290.16;;;16.56;96.81
72975;BME280;61166;54.228;37.632;2022-07-09T05:53:15;99275.09;;;16.62;98.24
72975;BME280;61166;54.228;37.632;2022-07-09T05:55:40;99264.56;;;16.67;98.96
72975;BME280;61166;54.228;37.632;2022-07-09T05:58:06;99251.28;;;16.67;99.47
72975;BME280;61166;54.228;37.632;2022-07-09T06:00:31;99244.59;;;16.64;99.16
72975;BME280;61166;54.228;37.632;2022-07-09T06:02:57;99241.88;;;16.59;98.39
72975;BME280;61166;54.228;37.632;2022-07-09T06:05:22;99235.50;;;16.60;96.86
72975;BME280;61166;54.228;37.632;2022-07-09T06:07:48;99234.91;;;16.53;97.30
72975;BME280;61166;54.228;37.632;2022-07-09T06:10:13;99248.41;;;16.51;96.98
72975;BME280;61166;54.228;37.632;2022-07-09T06:12:40;99255.09;;;16.54;97.76
72975;BME280;61166;54.228;37.632;2022-07-09T06:15:08;99269.72;;;16.57;97.81
72975;BME280;61166;54.228;37.632;2022-07-09T06:17:33;99293.78;;;16.50;97.95
72975;BME280;61166;54.228;37.632;2022-07-09T06:19:59;99308.09;;;16.66;98.03
72975;BME280;61166;54.228;37.632;2022-07-09T06:22:24;99319.66;;;16.81;98.27
72975;BME280;61166;54.228;37.632;2022-07-09T06:24:49;99334.38;;;16.89;98.39
72975;BME280;61166;54.228;37.632;2022-07-09T06:27:15;99337.63;;;16.96;98.59
72975;BME280;61166;54.228;37.632;2022-07-09T06:29:40;99337.75;;;17.06;98.48
72975;BME280;61166;54.228;37.632;2022-07-09T06:32:06;99346.09;;;17.15;98.41
72975;BME280;61166;54.228;37.632;2022-07-09T06:34:31;99353.00;;;17.16;98.30
72975;BME280;61166;54.228;37.632;2022-07-09T06:36:57;99360.72;;;17.17;97.60
72975;BME280;61166;54.228;37.632;2022-07-09T06:39:22;99374.03;;;17.17;97.45
72975;BME280;61166;54.228;37.632;2022-07-09T06:42:06;99364.25;;;17.23;97.27
72975;BME280;61166;54.228;37.632;2022-07-09T06:44:35;99358.94;;;17.23;96.44
72975;BME280;61166;54.228;37.632;2022-07-09T06:47:00;99347.00;;;17.26;96.07
72975;BME280;61166;54.228;37.632;2022-07-09T06:49:26;99343.28;;;17.27;95.92
72975;BME280;61166;54.228;37.632;2022-07-09T06:51:52;99335.63;;;17.30;95.76
72975;BME280;61166;54.228;37.632;2022-07-09T06:54:17;99329.25;;;17.36;95.60
72975;BME280;61166;54.228;37.632;2022-07-09T06:56:43;99319.53;;;17.47;95.18
72975;BME280;61166;54.228;37.632;2022-07-09T06:59:08;99305.78;;;17.55;94.94
72975;BME280;61166;54.228;37.632;2022-07-09T07:01:33;99295.44;;;17.59;94.29
72975;BME280;61166;54.228;37.632;2022-07-09T07:03:59;99285.41;;;17.66;93.35
72975;BME280;61166;54.228;37.632;2022-07-09T07:06:24;99261.53;;;17.76;92.33
72975;BME280;61166;54.228;37.632;2022-07-09T07:08:49;99235.63;;;18.03;90.13
72975;BME280;61166;54.228;37.632;2022-07-09T07:11:15;99232.72;;;18.10;89.10
72975;BME280;61166;54.228;37.632;2022-07-09T07:13:40;99258.84;;;18.18;88.40
72975;BME280;61166;54.228;37.632;2022-07-09T07:16:06;99281.22;;;18.22;89.07
72975;BME280;61166;54.228;37.632;2022-07-09T07:18:31;99295.66;;;18.31;88.87
72975;BME280;61166;54.228;37.632;2022-07-09T07:20:57;99293.81;;;18.37;89.44
72975;BME280;61166;54.228;37.632;2022-07-09T07:23:22;99274.94;;;18.43;87.64
72975;BME280;61166;54.228;37.632;2022-07-09T07:25:47;99259.50;;;18.51;87.46
72975;BME280;61166;54.228;37.632;2022-07-09T07:28:13;99256.66;;;18.67;87.64
72975;BME280;61166;54.228;37.632;2022-07-09T07:30:38;99251.91;;;18.79;86.82
72975;BME280;61166;54.228;37.632;2022-07-09T07:33:04;99246.88;;;18.98;85.54
72975;BME280;61166;54.228;37.632;2022-07-09T07:35:29;99232.22;;;19.11;85.82
72975;BME280;61166;54.228;37.632;2022-07-09T07:37:55;99240.47;;;19.25;84.22
72975;BME280;61166;54.228;37.632;2022-07-09T07:40:22;99261.31;;;19.58;83.57
72975;BME280;61166;54.228;37.632;2022-07-09T07:42:47;99273.28;;;19.86;82.92
72975;BME280;61166;54.228;37.632;2022-07-09T07:45:13;99273.16;;;20.27;81.39
72975;BME280;61166;54.228;37.632;2022-07-09T07:47:38;99284.75;;;20.76;80.34
72975;BME280;61166;54.228;37.632;2022-07-09T07:50:04;99278.59;;;21.25;77.77
72975;BME280;61166;54.228;37.632;2022-07-09T07:52:31;99275.38;;;21.86;75.36
72975;BME280;61166;54.228;37.632;2022-07-09T07:54:56;99270.84;;;22.34;73.84
72975;BME280;61166;54.228;37.632;2022-07-09T07:57:22;99266.56;;;22.76;71.61
72975;BME280;61166;54.228;37.632;2022-07-09T07:59:47;99260.22;;;23.42;68.40
72975;BME280;61166;54.228;37.632;2022-07-09T08:02:13;99267.69;;;24.74;65.04
72975;BME280;61166;54.228;37.632;2022-07-09T08:04:38;99274.75;;;26.04;61.66
72975;BME280;61166;54.228;37.632;2022-07-09T08:07:04;99274.31;;;26.67;58.56
72975;BME280;61166;54.228;37.632;2022-07-09T08:09:29;99274.03;;;27.29;55.53
72975;BME280;61166;54.228;37.632;2022-07-09T08:11:55;99270.78;;;27.79;53.68
72975;BME280;61166;54.228;37.632;2022-07-09T08:14:20;99273.19;;;28.18;52.03
72975;BME280;61166;54.228;37.632;2022-07-09T08:16:46;99273.97;;;29.19;50.34
72975;BME280;61166;54.228;37.632;2022-07-09T08:19:12;99270.78;;;29.83;47.95
72975;BME280;61166;54.228;37.632;2022-07-09T08:21:39;99277.97;;;30.89;45.46
72975;BME280;61166;54.228;37.632;2022-07-09T08:24:05;99269.22;;;31.95;42.82
72975;BME280;61166;54.228;37.632;2022-07-09T08:26:31;99260.22;;;31.47;42.13
72975;BME280;61166;54.228;37.632;2022-07-09T08:28:57;99265.75;;;31.51;42.91
72975;BME280;61166;54.228;37.632;2022-07-09T08:31:23;99267.03;;;31.41;42.18
72975;BME280;61166;54.228;37.632;2022-07-09T08:33:49;99262.09;;;31.15;41.58
72975;BME280;61166;54.228;37.632;2022-07-09T08:36:15;99264.91;;;31.19;41.99
72975;BME280;61166;54.228;37.632;2022-07-09T08:38:41;99257.88;;;32.75;39.79
72975;BME280;61166;54.228;37.632;2022-07-09T08:41:07;99245.34;;;32.20;38.73
72975;BME280;61166;54.228;37.632;2022-07-09T08:43:37;99256.25;;;31.45;40.59
72975;BME280;61166;54.228;37.632;2022-07-09T08:46:04;99247.47;;;30.80;41.78
72975;BME280;61166;54.228;37.632;2022-07-09T08:48:33;99246.97;;;30.13;43.22
72975;BME280;61166;54.228;37.632;2022-07-09T08:51:00;99243.69;;;30.20;43.36
72975;BME280;61166;54.228;37.632;2022-07-09T08:53:27;99221.97;;;29.83;43.87
72975;BME280;61166;54.228;37.632;2022-07-09T08:55:56;99234.63;;;30.93;41.24
72975;BME280;61166;54.228;37.632;2022-07-09T08:58:23;99233.41;;;30.13;42.06
72975;BME280;61166;54.228;37.632;2022-07-09T09:00:49;99223.91;;;29.38;43.74
72975;BME280;61166;54.228;37.632;2022-07-09T09:03:17;99232.75;;;28.51;46.16
72975;BME280;61166;54.228;37.632;2022-07-09T09:05:42;99224.38;;;28.15;45.73
72975;BME280;61166;54.228;37.632;2022-07-09T09:08:21;99214.09;;;27.70;47.25
72975;BME280;61166;54.228;37.632;2022-07-09T09:10:49;99222.44;;;28.24;44.68
72975;BME280;61166;54.228;37.632;2022-07-09T09:13:15;99208.97;;;29.19;43.01
72975;BME280;61166;54.228;37.632;2022-07-09T09:15:42;99201.44;;;29.04;43.39
72975;BME280;61166;54.228;37.632;2022-07-09T09:18:08;99198.50;;;28.55;43.79
72975;BME280;61166;54.228;37.632;2022-07-09T09:20:34;99195.44;;;28.86;43.91
72975;BME280;61166;54.228;37.632;2022-07-09T09:22:59;99195.13;;;29.00;42.83
72975;BME280;61166;54.228;37.632;2022-07-09T09:25:27;99207.75;;;27.95;46.16
72975;BME280;61166;54.228;37.632;2022-07-09T09:27:59;99192.78;;;26.53;49.09
72975;BME280;61166;54.228;37.632;2022-07-09T09:30:26;99188.72;;;25.45;52.20
72975;BME280;61166;54.228;37.632;2022-07-09T09:33:02;99191.28;;;25.42;51.97
72975;BME280;61166;54.228;37.632;2022-07-09T09:35:29;99184.78;;;27.17;47.36
72975;BME280;61166;54.228;37.632;2022-07-09T09:37:55;99179.78;;;27.62;45.96
72975;BME280;61166;54.228;37.632;2022-07-09T09:40:22;99177.59;;;28.23;44.00
72975;BME280;61166;54.228;37.632;2022-07-09T09:42:48;99164.94;;;29.22;42.19
72975;BME280;61166;54.228;37.632;2022-07-09T09:45:14;99170.56;;;29.99;40.88
72975;BME280;61166;54.228;37.632;2022-07-09T09:47:50;99158.53;;;30.49;39.40
72975;BME280;61166;54.228;37.632;2022-07-09T09:50:21;99164.41;;;30.51;39.48
72975;BME280;61166;54.228;37.632;2022-07-09T09:52:47;99161.06;;;30.17;39.76
72975;BME280;61166;54.228;37.632;2022-07-09T09:55:15;99164.59;;;29.94;40.25
72975;BME280;61166;54.228;37.632;2022-07-09T09:57:41;99154.72;;;28.95;41.98
72975;BME280;61166;54.228;37.632;2022-07-09T10:00:08;99152.66;;;27.41;46.65
72975;BME280;61166;54.228;37.632;2022-07-09T10:02:34;99134.97;;;26.80;48.25
72975;BME280;61166;54.228;37.632;2022-07-09T10:05:02;99139.53;;;26.02;50.01
72975;BME280;61166;54.228;37.632;2022-07-09T10:07:28;99139.63;;;25.40;51.38
72975;BME280;61166;54.228;37.632;2022-07-09T10:09:56;99138.69;;;24.91;52.66
72975;BME280;61166;54.228;37.632;2022-07-09T10:12:35;99135.41;;;24.72;54.42
72975;BME280;61166;54.228;37.632;2022-07-09T10:15:47;99138.69;;;24.46;54.58
72975;BME280;61166;54.228;37.632;2022-07-09T10:17:48;99141.31;;;24.24;53.74
72975;BME280;61166;54.228;37.632;2022-07-09T10:20:13;99139.94;;;23.99;54.69
72975;BME280;61166;54.228;37.632;2022-07-09T10:22:41;99128.25;;;23.67;55.50
72975;BME280;61166;54.228;37.632;2022-07-09T10:25:08;99137.56;;;23.70;55.18
72975;BME280;61166;54.228;37.632;2022-07-09T10:27:44;99135.19;;;23.82;56.66
72975;BME280;61166;54.228;37.632;2022-07-09T10:30:30;99140.75;;;23.99;56.72
72975;BME280;61166;54.228;37.632;2022-07-09T10:33:08;99130.00;;;23.99;56.32
72975;BME280;61166;54.228;37.632;2022-07-09T10:35:40;99123.63;;;23.95;56.85
72975;BME280;61166;54.228;37.632;2022-07-09T10:38:06;99122.06;;;23.94;57.47
72975;BME280;61166;54.228;37.632;2022-07-09T10:40:45;99122.84;;;23.95;57.70
72975;BME280;61166;54.228;37.632;2022-07-09T10:43:12;99120.25;;;24.03;57.54
72975;BME280;61166;54.228;37.632;2022-07-09T10:45:41;99111.47;;;24.12;57.23
72975;BME280;61166;54.228;37.632;2022-07-09T10:48:09;99108.84;;;24.34;56.68
72975;BME280;61166;54.228;37.632;2022-07-09T10:50:45;99100.81;;;24.20;57.51
72975;BME280;61166;54.228;37.632;2022-07-09T10:53:13;99104.69;;;24.28;57.35
72975;BME280;61166;54.228;37.632;2022-07-09T10:55:43;99107.13;;;24.02;58.15
72975;BME280;61166;54.228;37.632;2022-07-09T10:58:19;99093.19;;;24.00;57.49
72975;BME280;61166;54.228;37.632;2022-07-09T11:00:44;99087.63;;;23.96;59.08
72975;BME280;61166;54.228;37.632;2022-07-09T11:03:10;99078.25;;;24.08;57.53
72975;BME280;61166;54.228;37.632;2022-07-09T11:05:44;99089.31;;;23.92;56.61
72975;BME280;61166;54.228;37.632;2022-07-09T11:08:10;99086.25;;;23.85;58.30
72975;BME280;61166;54.228;37.632;2022-07-09T11:10:39;99074.50;;;23.95;57.90
72975;BME280;61166;54.228;37.632;2022-07-09T11:13:08;99079.66;;;23.91;57.36
72975;BME280;61166;54.228;37.632;2022-07-09T11:15:35;99067.91;;;24.01;58.50
72975;BME280;61166;54.228;37.632;2022-07-09T11:18:25;99080.16;;;23.93;57.10
72975;BME280;61166;54.228;37.632;2022-07-09T11:20:51;99063.53;;;24.05;57.47
72975;BME280;61166;54.228;37.632;2022-07-09T11:23:17;99065.38;;;24.18;57.66
72975;BME280;61166;54.228;37.632;2022-07-09T11:25:44;99065.09;;;24.20;56.30
72975;BME280;61166;54.228;37.632;2022-07-09T11:28:22;99065.09;;;24.20;58.07
72975;BME280;61166;54.228;37.632;2022-07-09T11:31:01;99057.50;;;24.22;57.92
72975;BME280;61166;54.228;37.632;2022-07-09T11:33:27;99055.50;;;24.27;58.51
72975;BME280;61166;54.228;37.632;2022-07-09T11:35:53;99056.44;;;24.45;57.79
72975;BME280;61166;54.228;37.632;2022-07-09T11:38:18;99052.78;;;24.63;57.62
72975;BME280;61166;54.228;37.632;2022-07-09T11:40:44;99047.50;;;24.81;57.07
72975;BME280;61166;54.228;37.632;2022-07-09T11:43:15;99055.41;;;24.86;57.03
72975;BME280;61166;54.228;37.632;2022-07-09T11:45:51;99056.38;;;24.90;57.19
72975;BME280;61166;54.228;37.632;2022-07-09T11:48:17;99040.81;;;25.00;57.32
72975;BME280;61166;54.228;37.632;2022-07-09T11:50:44;99038.03;;;25.14;56.88
72975;BME280;61166;54.228;37.632;2022-07-09T11:53:23;99047.81;;;25.10;56.99
72975;BME280;61166;54.228;37.632;2022-07-09T11:56:01;99032.88;;;25.35;56.53
72975;BME280;61166;54.228;37.632;2022-07-09T11:58:28;99045.47;;;25.65;55.65
72975;BME280;61166;54.228;37.632;2022-07-09T12:00:53;99052.34;;;25.89;55.00
72975;BME280;61166;54.228;37.632;2022-07-09T12:03:29;99047.91;;;26.19;54.85
72975;BME280;61166;54.228;37.632;2022-07-09T12:05:57;99043.00;;;26.21;52.50
72975;BME280;61166;54.228;37.632;2022-07-09T12:08:30;99044.91;;;26.29;52.96
72975;BME280;61166;54.228;37.632;2022-07-09T12:10:57;99042.50;;;26.19;50.90
72975;BME280;61166;54.228;37.632;2022-07-09T12:13:23;99043.47;;;26.23;50.61
72975;BME280;61166;54.228;37.632;2022-07-09T12:15:49;99048.25;;;26.43;50.87
72975;BME280;61166;54.228;37.632;2022-07-09T12:18:14;99040.41;;;26.68;51.04
72975;BME280;61166;54.228;37.632;2022-07-09T12:20:40;99035.66;;;26.64;50.60
72975;BME280;61166;54.228;37.632;2022-07-09T12:23:06;99041.19;;;26.68;50.07
72975;BME280;61166;54.228;37.632;2022-07-09T12:25:31;99043.41;;;26.75;51.09
72975;BME280;61166;54.228;37.632;2022-07-09T12:27:56;99051.50;;;26.75;50.19
72975;BME280;61166;54.228;37.632;2022-07-09T12:30:22;99049.91;;;26.74;50.60
72975;BME280;61166;54.228;37.632;2022-07-09T12:32:49;99051.00;;;26.81;50.55
72975;BME280;61166;54.228;37.632;2022-07-09T12:35:15;99048.63;;;26.80;50.83
72975;BME280;61166;54.228;37.632;2022-07-09T12:37:41;99044.03;;;26.80;51.69
72975;BME280;61166;54.228;37.632;2022-07-09T12:40:08;99044.06;;;26.72;50.32
72975;BME280;61166;54.228;37.632;2022-07-09T12:42:35;99036.44;;;26.65;51.09
72975;BME280;61166;54.228;37.632;2022-07-09T12:45:01;99032.63;;;26.66;51.40
72975;BME280;61166;54.228;37.632;2022-07-09T12:47:26;99033.75;;;26.65;51.57